AirNav   Air Wisconsin Up To $57,000 Bonus
 
 484 users online  

FL06 Orlando Health Emergency Room & Med Pav Heliport
Kissimmee, Florida, USA


FAA INFORMATION EFFECTIVE 07 NOVEMBER 2019

Location

FAA Identifier: FL06
Lat/Long: 28-20-23.3912N 081-23-42.5532W
28-20.389853N 081-23.709220W
28.3398309,-81.3951537
(estimated)
Elevation: 91 ft. / 28 m (estimated)
From city: 3 miles NNE of KISSIMMEE, FL
Time zone: UTC -5 (UTC -4 during Daylight Saving Time)
Zip code: 34743

Heliport Operations

Heliport use: Private use. Permission required prior to landing
Activation date: 02/2019
Control tower: no
ARTCC: MIAMI CENTER
FSS: SAINT PETERSBURG FLIGHT SERVICE STATION
Attendance: 
Wind indicator: lighted
Segmented circle: no
Lights: SS-SR

Heliport Communications

WX AWOS-3PT at ISM (4 nm SW): 128.775 (407-847-0533)
WX ASOS at MCO (7 nm NE): PHONE 407-855-5235
WX ASOS at ORL (13 nm N): PHONE 407-658-6753

Nearby radio navigation aids

VOR radial/distance  VOR name  Freq  Var
ORLr195/12.6ORLANDO VORTAC112.2000E
LALr056/39.0LAKELAND VORTAC116.0001E

Heliport Services

Runway Information

Helipad H1

Dimensions: 42 x 42 ft. / 13 x 13 m
Surface: concrete, in excellent condition
Runway edge lights: PERI
Latitude: 28-20.389853N
Longitude: 081-23.709220W
Elevation: 91.0 ft.
Traffic pattern: leftleft

Heliport Ownership and Management from official FAA records

Ownership: Privately-owned
Owner: ORLANDO HEALTH INC.
1414 KUHL AVE., MP-71
ORLANDO, FL 32806
Phone 321-228-7595
Manager: KAREN THURMOND
52 W. UNDERWOOD ST
ORLANDO, FL 32806
Phone 321-288-7595

Instrument Procedures

There are no published instrument procedures at FL06.

Some nearby airports with instrument procedures:

KISM - Kissimmee Gateway Airport (4 nm SW)
KMCO - Orlando International Airport (7 nm NE)
KORL - Executive Airport (13 nm N)
X04 - Orlando Apopka Airport (24 nm NW)
KGIF - Winter Haven Regional Airport (25 nm SW)
 
Loc | Ops | Rwys | IFR | FBO | Links
Com | Nav | Svcs | Stats | Notes
Aerial photo
No photo
 
Airport distance calculator
Flying to Orlando Health Emergency Room & Med Pav Heliport? Find the distance to fly.

From to FL06

Sunrise and sunset
Times for 19-Nov-2019
 Local
(UTC-5)
 Zulu
(UTC)
Morning civil twilight06:2711:27
Sunrise06:5211:52
Sunset17:3022:30
Evening civil twilight17:5522:55

Current date and time
Zulu (UTC)  19-Nov-2019 07:40:53
Local (UTC-5)  19-Nov-2019 02:40:53
 
METAR
KISM 
4nm SW 
190656Z AUTO 00000KT 10SM 13/12 A2989 RMK AO2 SLP123 T01280122 PNO $
KMCO 
6nm NE 
190653Z 23003KT 10SM CLR 14/12 A2988 RMK SLP118 T01390122
KORL 
13nm N 
190653Z AUTO 24003KT 10SM CLR 14/12 A2988 RMK AO2 SLP122 T01390122
TAF
KISM 
4nm SW 
190532Z 1906/2006 VRB04KT P6SM FEW035 TEMPO 1909/1912 5SM BR SCT025 FM191300 31007KT P6SM FEW035 SCT250 FM191800 28012KT P6SM FEW030 SCT250
KMCO 
6nm NE 
190532Z 1906/2012 25003KT P6SM FEW030 TEMPO 1909/1912 5SM BR SCT025 FM191400 30007KT P6SM FEW035 SCT250 FM191800 28013G18KT P6SM FEW030 SCT250 FM192200 29006KT P6SM FEW250
NOTAMs
Click for the latest NOTAMs
NOTAMs are issued by the DoD/FAA and will open in a separate window not controlled by AirNav.

 

 
 

Would you like to see your business listed on this page?

 If your business provides an interesting product or service to pilots, flight crews, aircraft, or users of the Orlando Health Emergency Room & Med Pav Heliport, you should consider listing it here.  To start the listing process, click on the button below
 
Add a business
 

Other Pages about Orlando Health Emergency Room & Med Pav Heliport

Update a link
 
Copyright © AirNav, LLC. All rights reserved. Privacy Policy  Contact